sensor_id;sensor_type;location;lat;lon;timestamp;P1;durP1;ratioP1;P2;durP2;ratioP2
18651;SDS011;9455;54.302;10.124;2023-08-31T00:00:33;25.27;;;11.80;;
18651;SDS011;9455;54.302;10.124;2023-08-31T00:03:01;24.70;;;11.83;;
18651;SDS011;9455;54.302;10.124;2023-08-31T00:05:27;24.33;;;11.77;;
18651;SDS011;9455;54.302;10.124;2023-08-31T00:07:55;23.80;;;10.93;;
18651;SDS011;9455;54.302;10.124;2023-08-31T00:10:22;17.60;;;10.40;;
18651;SDS011;9455;54.302;10.124;2023-08-31T00:12:49;21.57;;;11.10;;
18651;SDS011;9455;54.302;10.124;2023-08-31T00:15:18;23.43;;;11.37;;
18651;SDS011;9455;54.302;10.124;2023-08-31T00:17:44;23.47;;;11.67;;
18651;SDS011;9455;54.302;10.124;2023-08-31T00:20:11;24.80;;;11.90;;
18651;SDS011;9455;54.302;10.124;2023-08-31T00:22:38;23.73;;;11.37;;
18651;SDS011;9455;54.302;10.124;2023-08-31T00:25:04;24.20;;;11.90;;
18651;SDS011;9455;54.302;10.124;2023-08-31T00:27:33;19.87;;;11.67;;
18651;SDS011;9455;54.302;10.124;2023-08-31T00:30:02;26.63;;;12.00;;
18651;SDS011;9455;54.302;10.124;2023-08-31T00:32:32;22.40;;;11.93;;
18651;SDS011;9455;54.302;10.124;2023-08-31T00:35:00;22.07;;;11.80;;
18651;SDS011;9455;54.302;10.124;2023-08-31T00:37:28;26.57;;;12.20;;
18651;SDS011;9455;54.302;10.124;2023-08-31T00:39:54;27.37;;;12.10;;
18651;SDS011;9455;54.302;10.124;2023-08-31T00:42:21;22.63;;;11.63;;
18651;SDS011;9455;54.302;10.124;2023-08-31T00:44:47;24.07;;;12.47;;
18651;SDS011;9455;54.302;10.124;2023-08-31T00:47:14;22.77;;;12.10;;
18651;SDS011;9455;54.302;10.124;2023-08-31T00:49:43;23.37;;;12.37;;
18651;SDS011;9455;54.302;10.124;2023-08-31T00:52:09;27.33;;;13.03;;
18651;SDS011;9455;54.302;10.124;2023-08-31T00:54:36;23.53;;;12.03;;
18651;SDS011;9455;54.302;10.124;2023-08-31T00:57:03;25.77;;;12.67;;
18651;SDS011;9455;54.302;10.124;2023-08-31T00:59:30;25.13;;;12.47;;
18651;SDS011;9455;54.302;10.124;2023-08-31T01:01:58;26.93;;;12.00;;
18651;SDS011;9455;54.302;10.124;2023-08-31T01:04:32;26.43;;;11.67;;
18651;SDS011;9455;54.302;10.124;2023-08-31T01:07:08;22.87;;;12.13;;
18651;SDS011;9455;54.302;10.124;2023-08-31T01:09:43;25.30;;;11.77;;
18651;SDS011;9455;54.302;10.124;2023-08-31T01:12:18;27.40;;;11.57;;
18651;SDS011;9455;54.302;10.124;2023-08-31T01:14:56;21.67;;;11.60;;
18651;SDS011;9455;54.302;10.124;2023-08-31T01:17:28;24.77;;;11.63;;
18651;SDS011;9455;54.302;10.124;2023-08-31T01:19:57;20.57;;;10.87;;
18651;SDS011;9455;54.302;10.124;2023-08-31T01:22:29;19.00;;;10.73;;
18651;SDS011;9455;54.302;10.124;2023-08-31T01:25:01;18.57;;;10.87;;
18651;SDS011;9455;54.302;10.124;2023-08-31T01:27:29;20.50;;;10.93;;
18651;SDS011;9455;54.302;10.124;2023-08-31T01:29:56;24.13;;;10.93;;
18651;SDS011;9455;54.302;10.124;2023-08-31T01:32:23;23.17;;;11.53;;
18651;SDS011;9455;54.302;10.124;2023-08-31T01:34:50;18.13;;;10.27;;
18651;SDS011;9455;54.302;10.124;2023-08-31T01:37:19;22.63;;;11.27;;
18651;SDS011;9455;54.302;10.124;2023-08-31T01:39:54;22.87;;;10.63;;
18651;SDS011;9455;54.302;10.124;2023-08-31T01:42:26;25.17;;;10.57;;
18651;SDS011;9455;54.302;10.124;2023-08-31T01:44:54;20.17;;;9.33;;
18651;SDS011;9455;54.302;10.124;2023-08-31T01:47:23;17.47;;;9.23;;
18651;SDS011;9455;54.302;10.124;2023-08-31T01:49:50;16.50;;;9.27;;
18651;SDS011;9455;54.302;10.124;2023-08-31T01:52:18;17.53;;;8.87;;
18651;SDS011;9455;54.302;10.124;2023-08-31T01:54:44;21.50;;;9.43;;
18651;SDS011;9455;54.302;10.124;2023-08-31T01:57:11;15.50;;;8.77;;
18651;SDS011;9455;54.302;10.124;2023-08-31T01:59:39;16.77;;;8.37;;
18651;SDS011;9455;54.302;10.124;2023-08-31T02:02:06;17.40;;;8.80;;
18651;SDS011;9455;54.302;10.124;2023-08-31T02:04:32;17.77;;;8.00;;
18651;SDS011;9455;54.302;10.124;2023-08-31T02:06:59;15.60;;;8.50;;
18651;SDS011;9455;54.302;10.124;2023-08-31T02:09:26;16.47;;;8.50;;
18651;SDS011;9455;54.302;10.124;2023-08-31T02:11:52;17.17;;;8.93;;
18651;SDS011;9455;54.302;10.124;2023-08-31T02:14:19;15.20;;;7.53;;
18651;SDS011;9455;54.302;10.124;2023-08-31T02:16:47;19.53;;;9.00;;
18651;SDS011;9455;54.302;10.124;2023-08-31T02:19:13;14.30;;;7.50;;
18651;SDS011;9455;54.302;10.124;2023-08-31T02:21:40;15.27;;;8.60;;
18651;SDS011;9455;54.302;10.124;2023-08-31T02:24:06;18.03;;;8.23;;
18651;SDS011;9455;54.302;10.124;2023-08-31T02:26:34;15.37;;;8.43;;
18651;SDS011;9455;54.302;10.124;2023-08-31T02:29:01;20.53;;;8.77;;
18651;SDS011;9455;54.302;10.124;2023-08-31T02:31:28;17.80;;;8.10;;
18651;SDS011;9455;54.302;10.124;2023-08-31T02:33:56;22.07;;;8.47;;
18651;SDS011;9455;54.302;10.124;2023-08-31T02:36:22;14.30;;;7.93;;
18651;SDS011;9455;54.302;10.124;2023-08-31T02:38:49;16.50;;;8.87;;
18651;SDS011;9455;54.302;10.124;2023-08-31T02:41:15;15.50;;;8.23;;
18651;SDS011;9455;54.302;10.124;2023-08-31T02:43:42;17.33;;;8.20;;
18651;SDS011;9455;54.302;10.124;2023-08-31T02:46:09;13.87;;;7.87;;
18651;SDS011;9455;54.302;10.124;2023-08-31T02:48:35;15.57;;;8.27;;
18651;SDS011;9455;54.302;10.124;2023-08-31T02:51:03;14.93;;;8.30;;
18651;SDS011;9455;54.302;10.124;2023-08-31T02:53:30;20.83;;;8.07;;
18651;SDS011;9455;54.302;10.124;2023-08-31T02:55:56;15.93;;;8.07;;
18651;SDS011;9455;54.302;10.124;2023-08-31T02:58:23;17.37;;;7.87;;
18651;SDS011;9455;54.302;10.124;2023-08-31T03:00:50;20.07;;;8.87;;
18651;SDS011;9455;54.302;10.124;2023-08-31T03:03:17;17.80;;;8.43;;
18651;SDS011;9455;54.302;10.124;2023-08-31T03:05:44;15.87;;;8.30;;
18651;SDS011;9455;54.302;10.124;2023-08-31T03:08:12;19.13;;;9.17;;
18651;SDS011;9455;54.302;10.124;2023-08-31T03:10:39;14.50;;;8.40;;
18651;SDS011;9455;54.302;10.124;2023-08-31T03:13:05;14.60;;;8.70;;
18651;SDS011;9455;54.302;10.124;2023-08-31T03:15:32;17.23;;;8.83;;
18651;SDS011;9455;54.302;10.124;2023-08-31T03:17:59;25.33;;;8.97;;
18651;SDS011;9455;54.302;10.124;2023-08-31T03:20:26;18.90;;;9.47;;
18651;SDS011;9455;54.302;10.124;2023-08-31T03:22:53;16.17;;;8.40;;
18651;SDS011;9455;54.302;10.124;2023-08-31T03:25:20;15.70;;;6.70;;
18651;SDS011;9455;54.302;10.124;2023-08-31T03:27:47;16.23;;;8.50;;
18651;SDS011;9455;54.302;10.124;2023-08-31T03:30:14;18.43;;;8.80;;
18651;SDS011;9455;54.302;10.124;2023-08-31T03:32:40;22.03;;;9.17;;
18651;SDS011;9455;54.302;10.124;2023-08-31T03:35:07;20.63;;;8.93;;
18651;SDS011;9455;54.302;10.124;2023-08-31T03:37:35;18.17;;;9.00;;
18651;SDS011;9455;54.302;10.124;2023-08-31T03:40:01;17.90;;;8.93;;
18651;SDS011;9455;54.302;10.124;2023-08-31T03:42:30;16.30;;;7.53;;
18651;SDS011;9455;54.302;10.124;2023-08-31T03:44:57;15.70;;;9.27;;
18651;SDS011;9455;54.302;10.124;2023-08-31T03:47:24;18.13;;;8.87;;
18651;SDS011;9455;54.302;10.124;2023-08-31T03:49:50;16.20;;;9.23;;
18651;SDS011;9455;54.302;10.124;2023-08-31T03:52:17;16.53;;;8.27;;
18651;SDS011;9455;54.302;10.124;2023-08-31T03:54:43;20.73;;;7.77;;
18651;SDS011;9455;54.302;10.124;2023-08-31T03:57:10;9.87;;;5.83;;
18651;SDS011;9455;54.302;10.124;2023-08-31T03:59:38;25.07;;;9.13;;
18651;SDS011;9455;54.302;10.124;2023-08-31T04:02:04;20.73;;;7.93;;
18651;SDS011;9455;54.302;10.124;2023-08-31T04:04:31;14.03;;;8.23;;
18651;SDS011;9455;54.302;10.124;2023-08-31T04:06:59;14.97;;;7.90;;
18651;SDS011;9455;54.302;10.124;2023-08-31T04:09:26;33.40;;;11.07;;
18651;SDS011;9455;54.302;10.124;2023-08-31T04:11:52;15.47;;;8.13;;
18651;SDS011;9455;54.302;10.124;2023-08-31T04:14:19;17.23;;;8.37;;
18651;SDS011;9455;54.302;10.124;2023-08-31T04:16:47;12.67;;;7.23;;
18651;SDS011;9455;54.302;10.124;2023-08-31T04:19:15;22.13;;;8.80;;
18651;SDS011;9455;54.302;10.124;2023-08-31T04:21:42;16.87;;;8.77;;
18651;SDS011;9455;54.302;10.124;2023-08-31T04:24:08;17.77;;;7.47;;
18651;SDS011;9455;54.302;10.124;2023-08-31T04:26:35;16.47;;;7.93;;
18651;SDS011;9455;54.302;10.124;2023-08-31T04:29:02;12.47;;;7.17;;
18651;SDS011;9455;54.302;10.124;2023-08-31T04:31:30;10.30;;;6.63;;
18651;SDS011;9455;54.302;10.124;2023-08-31T04:33:58;12.37;;;6.37;;
18651;SDS011;9455;54.302;10.124;2023-08-31T04:36:25;11.47;;;7.23;;
18651;SDS011;9455;54.302;10.124;2023-08-31T04:38:52;12.83;;;7.07;;
18651;SDS011;9455;54.302;10.124;2023-08-31T04:41:18;10.10;;;5.37;;
18651;SDS011;9455;54.302;10.124;2023-08-31T04:43:45;16.07;;;6.80;;
18651;SDS011;9455;54.302;10.124;2023-08-31T04:46:12;11.93;;;6.50;;
18651;SDS011;9455;54.302;10.124;2023-08-31T04:48:39;12.00;;;6.80;;
18651;SDS011;9455;54.302;10.124;2023-08-31T04:51:09;12.97;;;6.97;;
18651;SDS011;9455;54.302;10.124;2023-08-31T04:53:52;14.43;;;6.67;;
18651;SDS011;9455;54.302;10.124;2023-08-31T04:56:19;14.20;;;6.83;;
18651;SDS011;9455;54.302;10.124;2023-08-31T04:58:45;10.33;;;6.27;;
18651;SDS011;9455;54.302;10.124;2023-08-31T05:01:12;16.37;;;6.10;;
18651;SDS011;9455;54.302;10.124;2023-08-31T05:03:39;9.17;;;6.23;;
18651;SDS011;9455;54.302;10.124;2023-08-31T05:06:07;12.77;;;6.10;;
18651;SDS011;9455;54.302;10.124;2023-08-31T05:08:34;9.53;;;5.97;;
18651;SDS011;9455;54.302;10.124;2023-08-31T05:11:00;11.77;;;6.03;;
18651;SDS011;9455;54.302;10.124;2023-08-31T05:13:27;13.13;;;6.10;;
18651;SDS011;9455;54.302;10.124;2023-08-31T05:15:54;14.90;;;6.07;;
18651;SDS011;9455;54.302;10.124;2023-08-31T05:18:20;17.20;;;5.87;;
18651;SDS011;9455;54.302;10.124;2023-08-31T05:20:47;12.07;;;6.40;;
18651;SDS011;9455;54.302;10.124;2023-08-31T05:23:16;11.57;;;5.90;;
18651;SDS011;9455;54.302;10.124;2023-08-31T05:25:42;10.60;;;5.67;;
18651;SDS011;9455;54.302;10.124;2023-08-31T05:28:09;10.33;;;5.50;;
18651;SDS011;9455;54.302;10.124;2023-08-31T05:30:35;9.50;;;5.07;;
18651;SDS011;9455;54.302;10.124;2023-08-31T05:33:02;9.00;;;5.83;;
18651;SDS011;9455;54.302;10.124;2023-08-31T05:35:29;11.97;;;5.43;;
18651;SDS011;9455;54.302;10.124;2023-08-31T05:37:56;11.20;;;5.57;;
18651;SDS011;9455;54.302;10.124;2023-08-31T05:40:24;9.10;;;5.20;;
18651;SDS011;9455;54.302;10.124;2023-08-31T05:42:50;7.30;;;5.30;;
18651;SDS011;9455;54.302;10.124;2023-08-31T05:45:17;29.27;;;6.83;;
18651;SDS011;9455;54.302;10.124;2023-08-31T05:47:43;10.53;;;5.10;;
18651;SDS011;9455;54.302;10.124;2023-08-31T05:50:10;7.87;;;5.37;;
18651;SDS011;9455;54.302;10.124;2023-08-31T05:52:37;14.97;;;5.77;;
18651;SDS011;9455;54.302;10.124;2023-08-31T05:55:03;8.50;;;5.03;;
18651;SDS011;9455;54.302;10.124;2023-08-31T05:57:33;10.77;;;5.07;;
18651;SDS011;9455;54.302;10.124;2023-08-31T05:59:59;10.17;;;4.87;;
18651;SDS011;9455;54.302;10.124;2023-08-31T06:02:26;11.80;;;4.83;;
18651;SDS011;9455;54.302;10.124;2023-08-31T06:04:53;9.57;;;4.13;;
18651;SDS011;9455;54.302;10.124;2023-08-31T06:07:19;8.60;;;4.50;;
18651;SDS011;9455;54.302;10.124;2023-08-31T06:09:46;9.60;;;4.50;;
18651;SDS011;9455;54.302;10.124;2023-08-31T06:12:13;6.20;;;3.97;;
18651;SDS011;9455;54.302;10.124;2023-08-31T06:14:41;15.67;;;4.57;;
18651;SDS011;9455;54.302;10.124;2023-08-31T06:17:08;13.63;;;4.37;;
18651;SDS011;9455;54.302;10.124;2023-08-31T06:19:36;7.20;;;4.03;;
18651;SDS011;9455;54.302;10.124;2023-08-31T06:22:03;9.33;;;4.03;;
18651;SDS011;9455;54.302;10.124;2023-08-31T06:24:30;11.83;;;4.37;;
18651;SDS011;9455;54.302;10.124;2023-08-31T06:26:57;4.37;;;3.60;;
18651;SDS011;9455;54.302;10.124;2023-08-31T06:29:24;9.30;;;4.00;;
18651;SDS011;9455;54.302;10.124;2023-08-31T06:31:52;4.93;;;3.23;;
18651;SDS011;9455;54.302;10.124;2023-08-31T06:34:18;6.43;;;2.93;;
18651;SDS011;9455;54.302;10.124;2023-08-31T06:36:45;6.03;;;3.33;;
18651;SDS011;9455;54.302;10.124;2023-08-31T06:39:11;3.73;;;3.43;;
18651;SDS011;9455;54.302;10.124;2023-08-31T06:41:38;6.57;;;3.60;;
18651;SDS011;9455;54.302;10.124;2023-08-31T06:44:05;5.13;;;3.07;;
18651;SDS011;9455;54.302;10.124;2023-08-31T06:46:32;4.23;;;3.60;;
18651;SDS011;9455;54.302;10.124;2023-08-31T06:49:00;5.53;;;2.77;;
18651;SDS011;9455;54.302;10.124;2023-08-31T06:51:26;5.70;;;2.87;;
18651;SDS011;9455;54.302;10.124;2023-08-31T06:53:54;3.37;;;2.80;;
18651;SDS011;9455;54.302;10.124;2023-08-31T06:56:20;8.73;;;3.20;;
18651;SDS011;9455;54.302;10.124;2023-08-31T06:58:47;4.53;;;2.70;;
18651;SDS011;9455;54.302;10.124;2023-08-31T07:01:13;5.73;;;3.03;;
18651;SDS011;9455;54.302;10.124;2023-08-31T07:03:40;4.43;;;2.53;;
18651;SDS011;9455;54.302;10.124;2023-08-31T07:06:08;4.50;;;2.83;;
18651;SDS011;9455;54.302;10.124;2023-08-31T07:08:35;2.70;;;2.50;;
18651;SDS011;9455;54.302;10.124;2023-08-31T07:11:02;2.27;;;2.10;;
18651;SDS011;9455;54.302;10.124;2023-08-31T07:13:28;9.33;;;2.60;;
18651;SDS011;9455;54.302;10.124;2023-08-31T07:15:55;2.30;;;2.20;;
18651;SDS011;9455;54.302;10.124;2023-08-31T07:18:21;4.10;;;2.00;;
18651;SDS011;9455;54.302;10.124;2023-08-31T07:20:48;2.27;;;1.70;;
18651;SDS011;9455;54.302;10.124;2023-08-31T07:23:16;10.07;;;2.27;;
18651;SDS011;9455;54.302;10.124;2023-08-31T07:25:42;13.77;;;2.30;;
18651;SDS011;9455;54.302;10.124;2023-08-31T07:28:09;1.30;;;1.30;;
18651;SDS011;9455;54.302;10.124;2023-08-31T07:30:36;1.23;;;1.13;;
18651;SDS011;9455;54.302;10.124;2023-08-31T07:33:03;6.00;;;1.40;;
18651;SDS011;9455;54.302;10.124;2023-08-31T07:35:30;1.17;;;1.17;;
18651;SDS011;9455;54.302;10.124;2023-08-31T07:37:57;4.43;;;2.77;;
18651;SDS011;9455;54.302;10.124;2023-08-31T07:40:25;15.03;;;4.80;;
18651;SDS011;9455;54.302;10.124;2023-08-31T07:42:51;10.30;;;2.20;;
18651;SDS011;9455;54.302;10.124;2023-08-31T07:45:18;4.23;;;1.53;;
18651;SDS011;9455;54.302;10.124;2023-08-31T07:47:44;2.13;;;1.80;;
18651;SDS011;9455;54.302;10.124;2023-08-31T07:50:11;4.00;;;1.60;;
18651;SDS011;9455;54.302;10.124;2023-08-31T07:52:39;3.03;;;1.27;;
18651;SDS011;9455;54.302;10.124;2023-08-31T07:55:06;1.17;;;1.17;;
18651;SDS011;9455;54.302;10.124;2023-08-31T07:57:34;4.40;;;1.03;;
18651;SDS011;9455;54.302;10.124;2023-08-31T08:00:00;1.97;;;1.00;;
18651;SDS011;9455;54.302;10.124;2023-08-31T08:02:27;1.00;;;1.00;;
18651;SDS011;9455;54.302;10.124;2023-08-31T08:04:54;5.43;;;0.93;;
18651;SDS011;9455;54.302;10.124;2023-08-31T08:07:20;0.87;;;0.60;;
18651;SDS011;9455;54.302;10.124;2023-08-31T08:09:47;2.07;;;1.30;;
18651;SDS011;9455;54.302;10.124;2023-08-31T08:12:13;4.63;;;1.13;;
18651;SDS011;9455;54.302;10.124;2023-08-31T08:14:41;0.80;;;0.80;;
18651;SDS011;9455;54.302;10.124;2023-08-31T08:17:08;2.30;;;0.97;;
18651;SDS011;9455;54.302;10.124;2023-08-31T08:19:34;2.20;;;0.80;;
18651;SDS011;9455;54.302;10.124;2023-08-31T08:22:01;2.37;;;0.97;;
18651;SDS011;9455;54.302;10.124;2023-08-31T08:24:28;4.23;;;1.00;;
18651;SDS011;9455;54.302;10.124;2023-08-31T08:26:55;0.80;;;0.80;;
18651;SDS011;9455;54.302;10.124;2023-08-31T08:29:21;0.70;;;0.70;;
18651;SDS011;9455;54.302;10.124;2023-08-31T08:31:49;1.27;;;1.00;;
18651;SDS011;9455;54.302;10.124;2023-08-31T08:34:16;2.07;;;0.73;;
18651;SDS011;9455;54.302;10.124;2023-08-31T08:36:43;4.83;;;1.00;;
18651;SDS011;9455;54.302;10.124;2023-08-31T08:39:09;0.80;;;0.80;;
18651;SDS011;9455;54.302;10.124;2023-08-31T08:41:36;0.70;;;0.70;;
18651;SDS011;9455;54.302;10.124;2023-08-31T08:44:04;3.30;;;1.10;;
18651;SDS011;9455;54.302;10.124;2023-08-31T08:46:34;2.30;;;0.97;;
18651;SDS011;9455;54.302;10.124;2023-08-31T08:49:03;2.27;;;0.77;;
18651;SDS011;9455;54.302;10.124;2023-08-31T08:51:31;1.97;;;1.03;;
18651;SDS011;9455;54.302;10.124;2023-08-31T08:53:58;3.93;;;0.90;;
18651;SDS011;9455;54.302;10.124;2023-08-31T08:56:25;3.37;;;0.90;;
18651;SDS011;9455;54.302;10.124;2023-08-31T08:58:52;2.10;;;0.70;;
18651;SDS011;9455;54.302;10.124;2023-08-31T09:01:19;1.87;;;1.10;;
18651;SDS011;9455;54.302;10.124;2023-08-31T09:03:47;3.07;;;0.87;;
18651;SDS011;9455;54.302;10.124;2023-08-31T09:06:15;1.53;;;0.67;;
18651;SDS011;9455;54.302;10.124;2023-08-31T09:08:42;1.23;;;0.80;;
18651;SDS011;9455;54.302;10.124;2023-08-31T09:11:09;4.23;;;0.63;;
18651;SDS011;9455;54.302;10.124;2023-08-31T09:13:47;1.90;;;0.70;;
18651;SDS011;9455;54.302;10.124;2023-08-31T09:16:23;0.93;;;0.83;;
18651;SDS011;9455;54.302;10.124;2023-08-31T09:18:51;0.50;;;0.50;;
18651;SDS011;9455;54.302;10.124;2023-08-31T09:21:19;2.43;;;0.70;;
18651;SDS011;9455;54.302;10.124;2023-08-31T09:23:47;4.33;;;1.00;;
18651;SDS011;9455;54.302;10.124;2023-08-31T09:26:21;4.53;;;1.00;;
18651;SDS011;9455;54.302;10.124;2023-08-31T09:28:48;4.03;;;0.60;;
18651;SDS011;9455;54.302;10.124;2023-08-31T09:31:15;0.80;;;0.80;;
18651;SDS011;9455;54.302;10.124;2023-08-31T09:33:49;2.23;;;1.17;;
18651;SDS011;9455;54.302;10.124;2023-08-31T09:36:16;2.43;;;0.60;;
18651;SDS011;9455;54.302;10.124;2023-08-31T09:38:45;1.10;;;0.70;;
18651;SDS011;9455;54.302;10.124;2023-08-31T09:41:12;1.00;;;1.00;;
18651;SDS011;9455;54.302;10.124;2023-08-31T09:43:40;0.53;;;0.53;;
18651;SDS011;9455;54.302;10.124;2023-08-31T09:46:08;4.90;;;1.10;;
18651;SDS011;9455;54.302;10.124;2023-08-31T09:48:35;4.37;;;1.33;;
18651;SDS011;9455;54.302;10.124;2023-08-31T09:51:04;2.73;;;0.83;;
18651;SDS011;9455;54.302;10.124;2023-08-31T09:53:31;0.67;;;0.67;;
18651;SDS011;9455;54.302;10.124;2023-08-31T09:55:59;3.13;;;0.83;;
18651;SDS011;9455;54.302;10.124;2023-08-31T09:58:25;1.50;;;0.90;;
18651;SDS011;9455;54.302;10.124;2023-08-31T10:00:54;3.00;;;0.80;;
18651;SDS011;9455;54.302;10.124;2023-08-31T10:03:20;0.90;;;0.90;;
18651;SDS011;9455;54.302;10.124;2023-08-31T10:05:47;0.70;;;0.70;;
18651;SDS011;9455;54.302;10.124;2023-08-31T10:08:16;3.87;;;1.10;;
18651;SDS011;9455;54.302;10.124;2023-08-31T10:10:43;0.97;;;0.53;;
18651;SDS011;9455;54.302;10.124;2023-08-31T10:13:12;3.60;;;1.00;;
18651;SDS011;9455;54.302;10.124;2023-08-31T10:15:39;3.90;;;0.90;;
18651;SDS011;9455;54.302;10.124;2023-08-31T10:18:09;2.50;;;1.07;;
18651;SDS011;9455;54.302;10.124;2023-08-31T10:20:35;2.00;;;0.70;;
18651;SDS011;9455;54.302;10.124;2023-08-31T10:23:02;0.53;;;0.53;;
18651;SDS011;9455;54.302;10.124;2023-08-31T10:28:30;3.03;;;1.00;;
18651;SDS011;9455;54.302;10.124;2023-08-31T10:31:07;0.67;;;0.50;;
18651;SDS011;9455;54.302;10.124;2023-08-31T10:33:34;2.00;;;0.80;;
18651;SDS011;9455;54.302;10.124;2023-08-31T10:36:09;2.37;;;0.83;;
18651;SDS011;9455;54.302;10.124;2023-08-31T10:38:36;6.57;;;0.90;;
18651;SDS011;9455;54.302;10.124;2023-08-31T10:41:16;2.90;;;0.70;;
18651;SDS011;9455;54.302;10.124;2023-08-31T10:43:49;2.67;;;0.87;;
18651;SDS011;9455;54.302;10.124;2023-08-31T10:46:18;2.73;;;0.60;;
18651;SDS011;9455;54.302;10.124;2023-08-31T10:48:50;0.60;;;0.60;;
18651;SDS011;9455;54.302;10.124;2023-08-31T10:51:17;0.83;;;0.70;;
18651;SDS011;9455;54.302;10.124;2023-08-31T10:53:45;2.50;;;0.80;;
18651;SDS011;9455;54.302;10.124;2023-08-31T10:56:12;0.50;;;0.50;;
18651;SDS011;9455;54.302;10.124;2023-08-31T10:58:41;0.97;;;0.50;;
18651;SDS011;9455;54.302;10.124;2023-08-31T11:01:10;0.43;;;0.43;;
18651;SDS011;9455;54.302;10.124;2023-08-31T11:03:56;2.93;;;0.67;;
18651;SDS011;9455;54.302;10.124;2023-08-31T11:06:23;0.60;;;0.37;;
18651;SDS011;9455;54.302;10.124;2023-08-31T11:08:54;2.63;;;0.73;;
18651;SDS011;9455;54.302;10.124;2023-08-31T11:11:22;0.80;;;0.60;;
18651;SDS011;9455;54.302;10.124;2023-08-31T11:13:49;1.20;;;1.10;;
18651;SDS011;9455;54.302;10.124;2023-08-31T11:16:17;0.60;;;0.60;;
18651;SDS011;9455;54.302;10.124;2023-08-31T11:18:43;0.40;;;0.40;;
18651;SDS011;9455;54.302;10.124;2023-08-31T11:21:10;0.60;;;0.60;;
18651;SDS011;9455;54.302;10.124;2023-08-31T11:23:37;5.33;;;0.93;;
18651;SDS011;9455;54.302;10.124;2023-08-31T11:26:03;0.87;;;0.70;;
18651;SDS011;9455;54.302;10.124;2023-08-31T11:28:32;0.83;;;0.50;;
18651;SDS011;9455;54.302;10.124;2023-08-31T11:31:00;5.93;;;0.63;;
18651;SDS011;9455;54.302;10.124;2023-08-31T11:33:31;0.43;;;0.40;;
18651;SDS011;9455;54.302;10.124;2023-08-31T11:35:58;1.60;;;0.50;;
18651;SDS011;9455;54.302;10.124;2023-08-31T11:38:25;0.30;;;0.30;;
18651;SDS011;9455;54.302;10.124;2023-08-31T11:40:55;0.43;;;0.43;;
18651;SDS011;9455;54.302;10.124;2023-08-31T11:43:22;2.70;;;0.50;;
18651;SDS011;9455;54.302;10.124;2023-08-31T11:45:49;1.33;;;0.50;;
18651;SDS011;9455;54.302;10.124;2023-08-31T11:48:17;0.63;;;0.60;;
18651;SDS011;9455;54.302;10.124;2023-08-31T11:50:45;1.33;;;0.60;;
18651;SDS011;9455;54.302;10.124;2023-08-31T11:53:12;0.47;;;0.47;;
18651;SDS011;9455;54.302;10.124;2023-08-31T11:55:48;3.03;;;0.50;;
18651;SDS011;9455;54.302;10.124;2023-08-31T11:58:16;1.70;;;0.90;;
18651;SDS011;9455;54.302;10.124;2023-08-31T12:00:43;1.13;;;0.60;;
18651;SDS011;9455;54.302;10.124;2023-08-31T12:03:11;0.60;;;0.60;;
18651;SDS011;9455;54.302;10.124;2023-08-31T12:05:46;2.37;;;0.80;;
18651;SDS011;9455;54.302;10.124;2023-08-31T12:08:13;0.50;;;0.50;;
18651;SDS011;9455;54.302;10.124;2023-08-31T12:10:40;1.50;;;0.40;;
18651;SDS011;9455;54.302;10.124;2023-08-31T12:13:07;1.43;;;0.67;;
18651;SDS011;9455;54.302;10.124;2023-08-31T12:15:34;0.63;;;0.53;;
18651;SDS011;9455;54.302;10.124;2023-08-31T12:18:06;1.60;;;0.40;;
18651;SDS011;9455;54.302;10.124;2023-08-31T12:20:33;2.97;;;0.77;;
18651;SDS011;9455;54.302;10.124;2023-08-31T12:23:07;2.47;;;0.73;;
18651;SDS011;9455;54.302;10.124;2023-08-31T12:25:34;1.27;;;0.63;;
18651;SDS011;9455;54.302;10.124;2023-08-31T12:28:01;1.50;;;0.40;;
18651;SDS011;9455;54.302;10.124;2023-08-31T12:30:28;1.27;;;0.50;;
18651;SDS011;9455;54.302;10.124;2023-08-31T12:32:55;1.53;;;0.43;;
18651;SDS011;9455;54.302;10.124;2023-08-31T12:35:22;1.43;;;0.50;;
18651;SDS011;9455;54.302;10.124;2023-08-31T12:37:48;1.53;;;0.10;;
18651;SDS011;9455;54.302;10.124;2023-08-31T12:40:16;0.30;;;0.30;;
18651;SDS011;9455;54.302;10.124;2023-08-31T12:42:45;0.40;;;0.40;;
18651;SDS011;9455;54.302;10.124;2023-08-31T12:45:11;0.40;;;0.30;;
18651;SDS011;9455;54.302;10.124;2023-08-31T12:50:03;0.70;;;0.70;;
18651;SDS011;9455;54.302;10.124;2023-08-31T12:52:30;0.53;;;0.53;;
18651;SDS011;9455;54.302;10.124;2023-08-31T12:54:57;0.43;;;0.40;;
18651;SDS011;9455;54.302;10.124;2023-08-31T12:57:25;0.53;;;0.33;;
18651;SDS011;9455;54.302;10.124;2023-08-31T12:59:51;2.20;;;0.57;;
18651;SDS011;9455;54.302;10.124;2023-08-31T13:02:18;0.37;;;0.37;;
18651;SDS011;9455;54.302;10.124;2023-08-31T13:04:45;0.30;;;0.30;;
18651;SDS011;9455;54.302;10.124;2023-08-31T13:07:11;2.43;;;0.40;;
18651;SDS011;9455;54.302;10.124;2023-08-31T13:09:38;0.30;;;0.30;;
18651;SDS011;9455;54.302;10.124;2023-08-31T13:12:05;2.63;;;0.27;;
18651;SDS011;9455;54.302;10.124;2023-08-31T13:14:33;0.40;;;0.40;;
18651;SDS011;9455;54.302;10.124;2023-08-31T13:17:00;1.73;;;0.60;;
18651;SDS011;9455;54.302;10.124;2023-08-31T13:19:26;1.23;;;0.53;;
18651;SDS011;9455;54.302;10.124;2023-08-31T13:21:53;1.23;;;0.80;;
18651;SDS011;9455;54.302;10.124;2023-08-31T13:24:20;1.03;;;0.90;;
18651;SDS011;9455;54.302;10.124;2023-08-31T13:26:46;1.33;;;1.20;;
18651;SDS011;9455;54.302;10.124;2023-08-31T13:29:13;4.00;;;0.97;;
18651;SDS011;9455;54.302;10.124;2023-08-31T13:31:41;1.93;;;1.93;;
18651;SDS011;9455;54.302;10.124;2023-08-31T13:34:08;1.63;;;1.63;;
18651;SDS011;9455;54.302;10.124;2023-08-31T13:36:35;2.23;;;2.00;;
18651;SDS011;9455;54.302;10.124;2023-08-31T13:39:02;1.53;;;1.53;;
18651;SDS011;9455;54.302;10.124;2023-08-31T13:41:29;2.43;;;1.10;;
18651;SDS011;9455;54.302;10.124;2023-08-31T13:43:56;0.90;;;0.90;;
18651;SDS011;9455;54.302;10.124;2023-08-31T13:46:22;2.73;;;0.80;;
18651;SDS011;9455;54.302;10.124;2023-08-31T13:48:50;0.60;;;0.60;;
18651;SDS011;9455;54.302;10.124;2023-08-31T13:51:18;0.73;;;0.73;;
18651;SDS011;9455;54.302;10.124;2023-08-31T13:53:45;1.47;;;0.93;;
18651;SDS011;9455;54.302;10.124;2023-08-31T13:56:12;1.23;;;1.00;;
18651;SDS011;9455;54.302;10.124;2023-08-31T13:58:38;5.63;;;1.50;;
18651;SDS011;9455;54.302;10.124;2023-08-31T14:01:06;1.30;;;1.30;;
18651;SDS011;9455;54.302;10.124;2023-08-31T14:03:32;0.57;;;0.57;;
18651;SDS011;9455;54.302;10.124;2023-08-31T14:06:00;0.90;;;0.90;;
18651;SDS011;9455;54.302;10.124;2023-08-31T14:08:27;3.07;;;1.20;;
18651;SDS011;9455;54.302;10.124;2023-08-31T14:10:53;0.70;;;0.70;;
18651;SDS011;9455;54.302;10.124;2023-08-31T14:13:20;0.70;;;0.70;;
18651;SDS011;9455;54.302;10.124;2023-08-31T14:15:47;0.40;;;0.40;;
18651;SDS011;9455;54.302;10.124;2023-08-31T14:18:14;2.80;;;0.80;;
18651;SDS011;9455;54.302;10.124;2023-08-31T14:20:40;6.03;;;1.00;;
18651;SDS011;9455;54.302;10.124;2023-08-31T14:23:08;2.10;;;0.70;;
18651;SDS011;9455;54.302;10.124;2023-08-31T14:25:35;0.50;;;0.50;;
18651;SDS011;9455;54.302;10.124;2023-08-31T14:28:03;1.27;;;0.70;;
18651;SDS011;9455;54.302;10.124;2023-08-31T14:30:30;4.57;;;0.87;;
18651;SDS011;9455;54.302;10.124;2023-08-31T14:32:57;1.27;;;0.40;;
18651;SDS011;9455;54.302;10.124;2023-08-31T14:35:24;0.67;;;0.40;;
18651;SDS011;9455;54.302;10.124;2023-08-31T14:37:50;0.60;;;0.60;;
18651;SDS011;9455;54.302;10.124;2023-08-31T14:40:18;1.00;;;0.67;;
18651;SDS011;9455;54.302;10.124;2023-08-31T14:42:45;0.80;;;0.80;;
18651;SDS011;9455;54.302;10.124;2023-08-31T14:45:11;1.00;;;1.00;;
18651;SDS011;9455;54.302;10.124;2023-08-31T14:47:38;0.60;;;0.60;;